createdAt,value
2022-12-28T00:01:47.001Z,-1.56
2022-12-28T00:04:50.526Z,-1.65
2022-12-28T00:07:55.250Z,-1.68
2022-12-28T00:11:07.993Z,-1.80
2022-12-28T00:14:12.745Z,-1.78
2022-12-28T00:17:16.022Z,-1.79
2022-12-28T00:20:19.281Z,-1.69
2022-12-28T00:23:27.014Z,-1.65
2022-12-28T00:26:32.806Z,-1.60
2022-12-28T00:29:37.571Z,-1.69
2022-12-28T00:32:41.000Z,-1.76
2022-12-28T00:35:44.728Z,-1.71
2022-12-28T00:38:49.364Z,-1.71
2022-12-28T00:41:52.588Z,-1.64
2022-12-28T00:44:56.093Z,-1.60
2022-12-28T00:47:59.347Z,-1.66
2022-12-28T00:51:04.222Z,-1.79
2022-12-28T00:54:09.439Z,-1.70
2022-12-28T00:57:12.649Z,-1.67
2022-12-28T01:00:17.003Z,-1.76
2022-12-28T01:03:20.279Z,-1.74
2022-12-28T01:06:23.607Z,-1.47
2022-12-28T01:09:31.411Z,-1.50
2022-12-28T01:12:38.235Z,-1.79
2022-12-28T01:15:42.013Z,-1.64
2022-12-28T01:18:46.499Z,-1.43
2022-12-28T01:21:51.111Z,-1.50
2022-12-28T01:24:56.031Z,-1.36
2022-12-28T01:27:59.493Z,-1.35
2022-12-28T01:31:07.728Z,-1.39
2022-12-28T01:34:11.282Z,-1.39
2022-12-28T01:37:14.566Z,-1.28
2022-12-28T01:40:20.282Z,-1.32
2022-12-28T01:43:37.663Z,-1.24
2022-12-28T01:46:45.681Z,-1.41
2022-12-28T01:49:59.232Z,-1.39
2022-12-28T01:53:05.701Z,-1.37
2022-12-28T01:56:13.102Z,-1.31
2022-12-28T01:59:19.390Z,-1.29
2022-12-28T02:02:23.396Z,-1.26
2022-12-28T02:05:32.267Z,-1.27
2022-12-28T02:08:42.984Z,-1.23
2022-12-28T02:11:49.717Z,-1.20
2022-12-28T02:14:54.184Z,-1.16
2022-12-28T02:17:58.294Z,-1.13
2022-12-28T02:21:31.240Z,-1.05
2022-12-28T02:25:19.767Z,-1.07
2022-12-28T02:29:18.225Z,-1.04
2022-12-28T02:33:05.429Z,-1.09
2022-12-28T02:36:33.224Z,-1.10
2022-12-28T02:39:42.279Z,-1.34
2022-12-28T02:42:46.930Z,-1.19
2022-12-28T02:46:08.629Z,-1.10
2022-12-28T02:49:44.370Z,-1.19
2022-12-28T02:53:12.588Z,-1.14
2022-12-28T02:56:31.502Z,-1.15
2022-12-28T02:59:41.246Z,-0.94
2022-12-28T03:03:06.008Z,-1.13
2022-12-28T03:06:35.808Z,-1.21
2022-12-28T03:09:47.934Z,-1.13
2022-12-28T03:12:56.945Z,-1.07
2022-12-28T03:16:13.747Z,-1.13
2022-12-28T03:19:34.365Z,-1.07
2022-12-28T03:23:02.328Z,-0.91
2022-12-28T03:26:32.361Z,-1.02
2022-12-28T03:30:01.010Z,-0.99
2022-12-28T03:33:05.489Z,-0.99
2022-12-28T03:36:15.605Z,-0.94
2022-12-28T03:39:34.144Z,-0.99
2022-12-28T03:43:02.215Z,-0.83
2022-12-28T03:46:12.645Z,-0.84
2022-12-28T03:49:18.964Z,-0.87
2022-12-28T03:52:23.250Z,-0.81
2022-12-28T03:55:48.723Z,-0.83
2022-12-28T03:58:55.363Z,-0.97
2022-12-28T04:02:03.564Z,-0.79
2022-12-28T04:05:09.800Z,-1.08
2022-12-28T04:08:18.578Z,-0.69
2022-12-28T04:11:25.605Z,-0.68
2022-12-28T04:14:30.685Z,-0.77
2022-12-28T04:17:34.273Z,-0.71
2022-12-28T04:20:39.291Z,-0.78
2022-12-28T04:23:43.201Z,-0.75
2022-12-28T04:26:56.084Z,-0.79
2022-12-28T04:29:59.344Z,-0.79
2022-12-28T04:34:36.035Z,-0.83
2022-12-28T04:37:44.536Z,-0.74
2022-12-28T04:40:48.472Z,-0.64
2022-12-28T04:43:52.221Z,-0.90
2022-12-28T04:46:55.946Z,-0.56
2022-12-28T04:50:00.710Z,-0.57
2022-12-28T04:53:03.920Z,-0.57
2022-12-28T04:56:23.055Z,-0.52
2022-12-28T04:59:26.486Z,-0.51
2022-12-28T05:02:29.850Z,-0.40
2022-12-28T05:05:34.896Z,-0.40
2022-12-28T05:08:40.417Z,-0.41
2022-12-28T05:11:46.521Z,-0.34
2022-12-28T05:14:49.869Z,-0.31
2022-12-28T05:17:53.300Z,-0.25
2022-12-28T05:21:01.720Z,-0.23
2022-12-28T05:24:06.346Z,-0.19
2022-12-28T05:27:13.291Z,-0.13
2022-12-28T05:30:16.824Z,-0.07
2022-12-28T05:33:21.083Z,-0.07
2022-12-28T05:36:27.617Z,0.04
2022-12-28T05:39:30.976Z,0.01
2022-12-28T05:42:36.360Z,0.01
2022-12-28T05:45:40.119Z,-0.01
2022-12-28T05:48:44.529Z,0.06
2022-12-28T05:51:52.767Z,0.16
2022-12-28T05:54:56.406Z,0.14
2022-12-28T05:58:02.007Z,0.17
2022-12-28T06:01:08.036Z,0.28
2022-12-28T06:04:18.394Z,0.30
2022-12-28T06:07:23.299Z,0.33
2022-12-28T06:10:26.790Z,0.45
2022-12-28T06:13:31.485Z,0.01
2022-12-28T06:16:36.021Z,0.43
2022-12-28T06:19:39.372Z,0.49
2022-12-28T06:22:44.259Z,0.50
2022-12-28T06:25:47.604Z,0.55
2022-12-28T06:28:51.484Z,0.58
2022-12-28T06:31:56.607Z,0.58
2022-12-28T06:35:02.547Z,0.54
2022-12-28T06:38:08.654Z,0.54
2022-12-28T06:41:15.113Z,0.63
2022-12-28T06:44:18.671Z,0.67
2022-12-28T06:47:22.061Z,-0.01
2022-12-28T06:50:25.550Z,0.68
2022-12-28T06:53:32.269Z,0.74
2022-12-28T06:56:36.651Z,0.79
2022-12-28T06:59:49.355Z,0.66
2022-12-28T07:02:58.466Z,0.82
2022-12-28T07:06:02.046Z,0.88
2022-12-28T07:09:08.772Z,0.91
2022-12-28T07:12:12.351Z,0.98
2022-12-28T07:15:36.887Z,1.12
2022-12-28T07:19:01.149Z,1.13
2022-12-28T07:22:24.219Z,1.15
2022-12-28T07:25:48.664Z,1.20
2022-12-28T07:29:11.712Z,1.28
2022-12-28T07:32:15.152Z,1.32
2022-12-28T07:35:18.562Z,1.38
2022-12-28T07:38:21.906Z,1.49
2022-12-28T07:41:34.073Z,1.52
2022-12-28T07:44:45.489Z,1.52
2022-12-28T07:47:51.895Z,1.57
2022-12-28T07:50:55.318Z,1.72
2022-12-28T07:54:00.239Z,1.66
2022-12-28T07:57:07.704Z,1.73
2022-12-28T08:00:12.278Z,1.81
2022-12-28T08:03:18.669Z,1.83
2022-12-28T08:06:23.670Z,1.86
2022-12-28T08:09:26.934Z,1.84
2022-12-28T08:12:31.571Z,1.96
2022-12-28T08:15:35.337Z,2.09
2022-12-28T08:18:40.228Z,2.14
2022-12-28T08:21:45.890Z,2.23
2022-12-28T08:24:49.104Z,2.25
2022-12-28T08:27:53.818Z,2.36
2022-12-28T08:30:59.250Z,2.41
2022-12-28T08:34:04.102Z,2.44
2022-12-28T08:37:33.403Z,2.54
2022-12-28T08:40:39.052Z,2.60
2022-12-28T08:43:44.280Z,2.69
2022-12-28T08:47:07.382Z,2.74
2022-12-28T08:50:32.013Z,2.84
2022-12-28T08:53:56.668Z,2.93
2022-12-28T08:57:19.830Z,3.01
2022-12-28T09:00:24.437Z,2.99
2022-12-28T09:03:28.069Z,3.04
2022-12-28T09:06:33.517Z,3.08
2022-12-28T09:09:38.936Z,3.13
2022-12-28T09:12:44.365Z,3.24
2022-12-28T09:16:00.880Z,3.41
2022-12-28T09:19:06.348Z,3.50
2022-12-28T09:22:09.576Z,3.42
2022-12-28T09:25:12.846Z,3.51
2022-12-28T09:28:17.181Z,3.47
2022-12-28T09:31:26.826Z,3.59
2022-12-28T09:34:36.748Z,3.67
2022-12-28T09:37:41.098Z,3.77
2022-12-28T09:40:44.495Z,3.75
2022-12-28T09:43:47.983Z,3.88
2022-12-28T09:47:10.565Z,3.80
2022-12-28T09:50:30.000Z,3.98
2022-12-28T09:53:36.432Z,3.96
2022-12-28T09:56:44.543Z,4.12
2022-12-28T09:59:49.393Z,4.15
2022-12-28T10:03:00.191Z,4.17
2022-12-28T10:06:05.260Z,4.37
2022-12-28T10:09:17.229Z,4.21
2022-12-28T10:12:25.665Z,4.50
2022-12-28T10:15:29.932Z,4.49
2022-12-28T10:18:39.618Z,4.50
2022-12-28T10:21:44.626Z,4.57
2022-12-28T10:24:48.899Z,4.74
2022-12-28T10:27:52.877Z,4.71
2022-12-28T10:34:37.294Z,4.94
2022-12-28T10:37:45.573Z,5.15
2022-12-28T10:40:59.257Z,5.17
2022-12-28T10:44:38.758Z,5.25
2022-12-28T10:47:44.992Z,5.34
2022-12-28T10:50:53.135Z,5.52
2022-12-28T10:53:57.842Z,5.65
2022-12-28T10:57:01.548Z,5.71
2022-12-28T11:00:17.226Z,5.80
2022-12-28T11:03:25.926Z,5.83
2022-12-28T11:06:32.442Z,5.87
2022-12-28T11:09:36.790Z,5.86
2022-12-28T11:12:44.696Z,5.97
2022-12-28T11:15:47.949Z,6.00
2022-12-28T11:18:51.629Z,5.96
2022-12-28T11:21:56.265Z,6.26
2022-12-28T11:25:01.686Z,6.48
2022-12-28T11:28:12.349Z,6.53
2022-12-28T11:31:23.697Z,6.60
2022-12-28T11:34:31.340Z,6.55
2022-12-28T11:37:36.226Z,6.46
2022-12-28T11:40:52.490Z,6.39
2022-12-28T11:43:56.929Z,6.43
2022-12-28T11:47:04.980Z,6.38
2022-12-28T11:50:49.097Z,6.43
2022-12-28T11:53:58.113Z,6.52
2022-12-28T11:57:01.461Z,6.48
2022-12-28T12:00:48.629Z,6.48
2022-12-28T12:04:21.616Z,6.61
2022-12-28T12:07:32.023Z,6.52
2022-12-28T12:10:38.965Z,6.37
2022-12-28T12:13:45.532Z,6.48
2022-12-28T12:16:55.220Z,6.57
2022-12-28T12:20:01.858Z,6.48
2022-12-28T12:23:10.058Z,6.56
2022-12-28T12:26:27.870Z,6.66
2022-12-28T12:29:40.374Z,6.74
2022-12-28T12:32:46.456Z,6.77
2022-12-28T12:36:08.890Z,6.59
2022-12-28T12:39:25.636Z,6.70
2022-12-28T12:42:45.169Z,6.74
2022-12-28T12:45:59.200Z,6.58
2022-12-28T12:49:26.789Z,6.75
2022-12-28T12:52:42.432Z,6.87
2022-12-28T12:55:57.645Z,6.67
2022-12-28T12:59:20.507Z,6.78
2022-12-28T13:02:36.438Z,6.85
2022-12-28T13:05:43.886Z,6.88
2022-12-28T13:08:49.834Z,6.90
2022-12-28T13:11:53.404Z,6.78
2022-12-28T13:15:00.788Z,6.58
2022-12-28T13:18:43.588Z,6.84
2022-12-28T13:21:30.986Z,7.02
2022-12-28T13:24:40.408Z,7.04
2022-12-28T13:27:44.312Z,7.13
2022-12-28T13:31:09.278Z,7.11
2022-12-28T13:34:18.694Z,7.04
2022-12-28T13:37:23.206Z,6.97
2022-12-28T13:40:26.709Z,6.92
2022-12-28T13:44:07.725Z,6.99
2022-12-28T13:47:21.448Z,7.02
2022-12-28T13:50:27.740Z,6.89
2022-12-28T13:53:33.599Z,6.88
2022-12-28T13:56:44.647Z,7.00
2022-12-28T14:00:09.894Z,7.05
2022-12-28T14:03:41.376Z,6.98
2022-12-28T14:07:12.951Z,7.07
2022-12-28T14:10:37.223Z,7.03
2022-12-28T14:14:00.391Z,6.93
2022-12-28T14:17:04.423Z,7.06
2022-12-28T14:20:11.416Z,7.11
2022-12-28T14:23:22.326Z,7.07
2022-12-28T14:26:25.558Z,7.06
2022-12-28T14:29:32.182Z,7.04
2022-12-28T14:32:42.562Z,7.02
2022-12-28T14:35:50.675Z,6.98
2022-12-28T14:42:23.992Z,6.95
2022-12-28T14:46:07.272Z,6.91
2022-12-28T14:49:22.727Z,6.88
2022-12-28T14:52:35.997Z,6.82
2022-12-28T14:55:53.947Z,6.78
2022-12-28T14:59:01.395Z,6.72
2022-12-28T15:00:25.039Z,6.98
2022-12-28T15:02:05.398Z,6.69
2022-12-28T15:05:43.555Z,6.70
2022-12-28T15:08:50.690Z,6.69
2022-12-28T15:12:09.897Z,6.62
2022-12-28T15:15:13.664Z,6.56
2022-12-28T15:18:16.955Z,6.56
2022-12-28T15:21:23.944Z,6.50
2022-12-28T15:24:33.509Z,6.39
2022-12-28T15:27:39.388Z,6.34
2022-12-28T15:30:43.163Z,6.29
2022-12-28T15:33:49.057Z,6.42
2022-12-28T15:36:52.713Z,6.29
2022-12-28T15:39:59.971Z,6.40
2022-12-28T15:43:03.171Z,6.26
2022-12-28T15:46:06.714Z,6.32
2022-12-28T15:49:13.175Z,6.41
2022-12-28T15:52:16.431Z,6.32
2022-12-28T15:55:21.046Z,6.26
2022-12-28T15:58:24.294Z,6.33
2022-12-28T16:01:30.001Z,6.10
2022-12-28T16:04:33.666Z,6.19
2022-12-28T16:07:39.731Z,6.19
2022-12-28T16:10:44.370Z,6.07
2022-12-28T16:13:52.490Z,6.12
2022-12-28T16:17:15.952Z,5.97
2022-12-28T16:20:39.087Z,5.95
2022-12-28T16:24:02.806Z,6.07
2022-12-28T16:27:27.366Z,5.89
2022-12-28T16:34:35.953Z,5.93
2022-12-28T16:37:41.330Z,5.94
2022-12-28T16:40:45.385Z,5.89
2022-12-28T16:43:49.262Z,6.01
2022-12-28T16:46:54.140Z,5.98
2022-12-28T16:49:58.966Z,6.01
2022-12-28T16:53:02.308Z,5.84
2022-12-28T16:56:07.972Z,5.92
2022-12-28T16:59:15.383Z,5.79
2022-12-28T17:02:18.867Z,5.74
2022-12-28T17:05:23.717Z,5.82
2022-12-28T17:08:27.408Z,5.70
2022-12-28T17:11:31.216Z,5.57
2022-12-28T17:14:38.262Z,5.54
2022-12-28T17:17:41.653Z,5.60
2022-12-28T17:20:46.878Z,5.55
2022-12-28T17:23:50.156Z,5.39
2022-12-28T17:26:53.678Z,5.53
2022-12-28T17:29:57.205Z,5.52
2022-12-28T17:33:00.493Z,5.58
2022-12-28T17:36:05.631Z,5.56
2022-12-28T17:39:11.243Z,5.48
2022-12-28T17:42:18.073Z,5.50
2022-12-28T17:45:21.649Z,5.39
2022-12-28T17:48:27.887Z,5.43
2022-12-28T17:51:35.858Z,5.42
2022-12-28T17:54:43.411Z,5.37
2022-12-28T17:57:46.645Z,5.28
2022-12-28T18:00:54.964Z,5.30
2022-12-28T18:04:01.909Z,5.22
2022-12-28T18:07:06.845Z,5.17
2022-12-28T18:10:12.175Z,5.10
2022-12-28T18:13:16.182Z,4.78
2022-12-28T18:16:21.244Z,4.80
2022-12-28T18:19:26.267Z,4.94
2022-12-28T18:22:30.929Z,4.91
2022-12-28T18:25:54.035Z,4.86
2022-12-28T18:29:17.192Z,4.80
2022-12-28T18:32:40.455Z,4.78
2022-12-28T18:36:05.895Z,4.70
2022-12-28T18:39:30.653Z,4.69
2022-12-28T18:42:33.973Z,4.65
2022-12-28T18:45:37.397Z,4.52
2022-12-28T18:48:42.647Z,4.45
2022-12-28T18:51:46.336Z,4.42
2022-12-28T18:54:51.181Z,4.60
2022-12-28T18:57:54.483Z,4.53
2022-12-28T19:01:03.122Z,4.57
2022-12-28T19:04:09.238Z,4.21
2022-12-28T19:07:12.789Z,4.59
2022-12-28T19:10:17.565Z,4.62
2022-12-28T19:13:21.460Z,4.51
2022-12-28T19:16:31.035Z,4.40
2022-12-28T19:19:35.315Z,4.58
2022-12-28T19:22:39.771Z,4.47
2022-12-28T19:25:44.410Z,4.48
2022-12-28T19:28:48.325Z,4.45
2022-12-28T19:31:51.888Z,4.41
2022-12-28T19:34:55.207Z,4.36
2022-12-28T19:37:59.412Z,4.41
2022-12-28T19:41:07.804Z,4.29
2022-12-28T19:44:10.791Z,4.34
2022-12-28T19:47:16.908Z,4.26
2022-12-28T19:50:20.310Z,4.29
2022-12-28T19:53:23.921Z,4.24
2022-12-28T19:56:28.800Z,4.27
2022-12-28T19:59:31.967Z,4.25
2022-12-28T20:03:28.949Z,4.26
2022-12-28T20:06:32.199Z,4.28
2022-12-28T20:09:35.352Z,4.18
2022-12-28T20:12:38.642Z,4.21
2022-12-28T20:18:21.114Z,4.23
2022-12-28T20:21:26.188Z,4.28
2022-12-28T20:24:29.397Z,4.29
2022-12-28T20:27:32.553Z,4.20
2022-12-28T20:33:21.792Z,4.12
2022-12-28T20:36:26.396Z,3.95
2022-12-28T20:39:29.746Z,3.97
2022-12-28T20:42:50.276Z,3.95
2022-12-28T20:45:54.472Z,3.98
2022-12-28T20:48:59.714Z,3.96
2022-12-28T20:52:02.913Z,3.83
2022-12-28T20:55:08.171Z,3.99
2022-12-28T20:58:11.299Z,4.04
2022-12-28T21:03:24.835Z,4.01
2022-12-28T21:06:27.928Z,4.06
2022-12-28T21:09:31.166Z,4.05
2022-12-28T21:12:34.279Z,4.10
2022-12-28T21:18:22.035Z,4.18
2022-12-28T21:21:28.173Z,4.28
2022-12-28T21:24:33.801Z,4.34
2022-12-28T21:27:36.907Z,4.39
2022-12-28T21:33:24.011Z,4.39
2022-12-28T21:36:27.191Z,4.48
2022-12-28T21:39:33.038Z,4.50
2022-12-28T21:42:37.426Z,4.50
2022-12-28T21:48:21.699Z,4.67
2022-12-28T21:51:35.202Z,4.75
2022-12-28T21:54:38.475Z,4.69
2022-12-28T21:57:41.762Z,4.76
2022-12-28T22:03:41.173Z,4.74
2022-12-28T22:06:44.374Z,4.91
2022-12-28T22:10:05.397Z,4.80
2022-12-28T22:13:08.482Z,4.88
2022-12-28T22:18:52.699Z,4.95
2022-12-28T22:21:48.056Z,4.85
2022-12-28T22:24:51.133Z,4.81
2022-12-28T22:27:54.216Z,4.86
2022-12-28T22:34:35.414Z,4.77
2022-12-28T22:37:39.891Z,4.82
2022-12-28T22:40:43.003Z,4.78
2022-12-28T22:43:50.542Z,4.72
2022-12-28T22:48:20.651Z,4.83
2022-12-28T22:51:23.807Z,5.00
2022-12-28T22:54:27.283Z,4.88
2022-12-28T22:57:30.381Z,5.19
2022-12-28T23:03:23.350Z,5.22
2022-12-28T23:06:28.015Z,5.32
2022-12-28T23:09:31.207Z,5.35
2022-12-28T23:12:34.537Z,5.36
2022-12-28T23:18:37.313Z,5.39
2022-12-28T23:21:58.046Z,5.44
2022-12-28T23:25:18.862Z,5.41
2022-12-28T23:28:21.948Z,5.38
2022-12-28T23:33:21.102Z,5.43
2022-12-28T23:36:24.501Z,5.45
2022-12-28T23:39:27.572Z,5.58
2022-12-28T23:42:30.637Z,5.53
2022-12-28T23:48:23.004Z,5.53
2022-12-28T23:51:26.268Z,5.52
2022-12-28T23:54:29.338Z,5.53
2022-12-28T23:57:32.376Z,5.65
